sensor_id;sensor_type;location;lat;lon;timestamp;pressure;altitude;pressure_sealevel;temperature
37452;BMP280;23314;51.114;6.900;2023-05-07T07:02:33;101322.28;;;19.13
37452;BMP280;23314;51.114;6.900;2023-05-07T07:04:58;101322.41;;;19.47
37452;BMP280;23314;51.114;6.900;2023-05-07T07:07:24;101329.56;;;19.77
37452;BMP280;23314;51.114;6.900;2023-05-07T07:09:49;101329.75;;;20.07
37452;BMP280;23314;51.114;6.900;2023-05-07T07:12:14;101324.97;;;20.36
37452;BMP280;23314;51.114;6.900;2023-05-07T07:14:40;101326.00;;;20.62
37452;BMP280;23314;51.114;6.900;2023-05-07T07:17:05;101327.84;;;20.80
37452;BMP280;23314;51.114;6.900;2023-05-07T07:19:30;101337.03;;;20.98
37452;BMP280;23314;51.114;6.900;2023-05-07T07:21:56;101335.84;;;21.14
37452;BMP280;23314;51.114;6.900;2023-05-07T07:24:21;101335.94;;;21.34
37452;BMP280;23314;51.114;6.900;2023-05-07T07:26:46;101339.41;;;21.50
37452;BMP280;23314;51.114;6.900;2023-05-07T07:29:12;101337.91;;;21.64
37452;BMP280;23314;51.114;6.900;2023-05-07T07:31:37;101341.72;;;21.72
37452;BMP280;23314;51.114;6.900;2023-05-07T07:34:02;101343.59;;;21.81
37452;BMP280;23314;51.114;6.900;2023-05-07T07:36:28;101335.22;;;21.99
37452;BMP280;23314;51.114;6.900;2023-05-07T07:38:53;101343.44;;;22.20
37452;BMP280;23314;51.114;6.900;2023-05-07T07:41:19;101344.38;;;22.37
37452;BMP280;23314;51.114;6.900;2023-05-07T07:43:44;101347.56;;;22.56
37452;BMP280;23314;51.114;6.900;2023-05-07T07:46:12;101345.25;;;22.70
37452;BMP280;23314;51.114;6.900;2023-05-07T07:48:37;101347.88;;;22.85
37452;BMP280;23314;51.114;6.900;2023-05-07T07:51:03;101343.09;;;23.00
37452;BMP280;23314;51.114;6.900;2023-05-07T07:53:28;101349.19;;;23.16
37452;BMP280;23314;51.114;6.900;2023-05-07T07:55:53;101342.59;;;23.28
37452;BMP280;23314;51.114;6.900;2023-05-07T07:58:19;101340.44;;;23.38
37452;BMP280;23314;51.114;6.900;2023-05-07T08:00:44;101345.03;;;23.52
37452;BMP280;23314;51.114;6.900;2023-05-07T08:03:10;101345.34;;;23.66
37452;BMP280;23314;51.114;6.900;2023-05-07T08:05:35;101347.41;;;23.76
37452;BMP280;23314;51.114;6.900;2023-05-07T08:08:01;101345.78;;;23.90
37452;BMP280;23314;51.114;6.900;2023-05-07T08:10:26;101353.25;;;24.01
37452;BMP280;23314;51.114;6.900;2023-05-07T08:12:52;101345.31;;;24.03
37452;BMP280;23314;51.114;6.900;2023-05-07T08:15:17;101354.00;;;24.02
37452;BMP280;23314;51.114;6.900;2023-05-07T08:17:43;101345.59;;;24.05
37452;BMP280;23314;51.114;6.900;2023-05-07T08:20:09;101341.91;;;24.08
37452;BMP280;23314;51.114;6.900;2023-05-07T08:22:35;101346.84;;;24.10
37452;BMP280;23314;51.114;6.900;2023-05-07T08:25:00;101348.34;;;24.16
37452;BMP280;23314;51.114;6.900;2023-05-07T08:27:26;101346.66;;;24.19
37452;BMP280;23314;51.114;6.900;2023-05-07T08:29:51;101355.81;;;24.22
37452;BMP280;23314;51.114;6.900;2023-05-07T08:32:16;101354.88;;;24.30
37452;BMP280;23314;51.114;6.900;2023-05-07T08:34:42;101358.41;;;24.48
37452;BMP280;23314;51.114;6.900;2023-05-07T08:37:07;101354.97;;;24.76
37452;BMP280;23314;51.114;6.900;2023-05-07T08:39:32;101354.78;;;25.02
37452;BMP280;23314;51.114;6.900;2023-05-07T08:42:00;101355.03;;;25.15
37452;BMP280;23314;51.114;6.900;2023-05-07T08:44:28;101356.03;;;25.01
37452;BMP280;23314;51.114;6.900;2023-05-07T08:46:55;101357.75;;;24.87
37452;BMP280;23314;51.114;6.900;2023-05-07T08:49:20;101352.06;;;25.02
37452;BMP280;23314;51.114;6.900;2023-05-07T08:51:46;101355.28;;;25.12
37452;BMP280;23314;51.114;6.900;2023-05-07T08:54:15;101354.28;;;25.26
37452;BMP280;23314;51.114;6.900;2023-05-07T08:56:41;101350.28;;;25.50
37452;BMP280;23314;51.114;6.900;2023-05-07T08:59:06;101350.00;;;25.65
37452;BMP280;23314;51.114;6.900;2023-05-07T09:01:32;101347.22;;;25.82
37452;BMP280;23314;51.114;6.900;2023-05-07T09:03:57;101347.94;;;25.93
37452;BMP280;23314;51.114;6.900;2023-05-07T09:06:22;101346.63;;;26.06
37452;BMP280;23314;51.114;6.900;2023-05-07T09:08:52;101347.81;;;26.22
37452;BMP280;23314;51.114;6.900;2023-05-07T09:11:22;101350.72;;;26.41
37452;BMP280;23314;51.114;6.900;2023-05-07T09:13:48;101348.47;;;26.39
37452;BMP280;23314;51.114;6.900;2023-05-07T09:16:15;101339.47;;;26.50
37452;BMP280;23314;51.114;6.900;2023-05-07T09:18:43;101339.84;;;26.65
37452;BMP280;23314;51.114;6.900;2023-05-07T09:21:11;101339.72;;;26.82
37452;BMP280;23314;51.114;6.900;2023-05-07T09:23:37;101343.88;;;26.95
37452;BMP280;23314;51.114;6.900;2023-05-07T09:26:02;101339.72;;;27.13
37452;BMP280;23314;51.114;6.900;2023-05-07T09:28:27;101330.50;;;27.40
37452;BMP280;23314;51.114;6.900;2023-05-07T09:30:53;101332.19;;;27.68
37452;BMP280;23314;51.114;6.900;2023-05-07T09:33:18;101335.50;;;27.80
37452;BMP280;23314;51.114;6.900;2023-05-07T09:35:43;101334.19;;;27.87
37452;BMP280;23314;51.114;6.900;2023-05-07T09:38:09;101332.28;;;27.57
37452;BMP280;23314;51.114;6.900;2023-05-07T09:40:34;101340.28;;;27.55
37452;BMP280;23314;51.114;6.900;2023-05-07T09:43:13;101339.03;;;27.56
37452;BMP280;23314;51.114;6.900;2023-05-07T09:45:38;101335.06;;;27.76
37452;BMP280;23314;51.114;6.900;2023-05-07T09:48:05;101336.72;;;28.04
37452;BMP280;23314;51.114;6.900;2023-05-07T09:50:35;101343.16;;;28.06
37452;BMP280;23314;51.114;6.900;2023-05-07T09:53:03;101338.78;;;27.98
37452;BMP280;23314;51.114;6.900;2023-05-07T09:55:28;101341.28;;;27.95
37452;BMP280;23314;51.114;6.900;2023-05-07T09:57:54;101336.25;;;27.81
37452;BMP280;23314;51.114;6.900;2023-05-07T10:00:21;101331.19;;;27.66
37452;BMP280;23314;51.114;6.900;2023-05-07T10:02:51;101327.91;;;27.48
37452;BMP280;23314;51.114;6.900;2023-05-07T10:05:18;101327.03;;;27.34
37452;BMP280;23314;51.114;6.900;2023-05-07T10:07:44;101330.59;;;27.29
37452;BMP280;23314;51.114;6.900;2023-05-07T10:10:10;101317.13;;;27.07
37452;BMP280;23314;51.114;6.900;2023-05-07T10:12:35;101332.63;;;26.98
37452;BMP280;23314;51.114;6.900;2023-05-07T10:15:07;101326.28;;;26.79
37452;BMP280;23314;51.114;6.900;2023-05-07T10:17:38;101321.41;;;26.72
37452;BMP280;23314;51.114;6.900;2023-05-07T10:20:05;101326.41;;;26.67
37452;BMP280;23314;51.114;6.900;2023-05-07T10:22:38;101326.69;;;26.64
37452;BMP280;23314;51.114;6.900;2023-05-07T10:25:06;101324.38;;;26.74
37452;BMP280;23314;51.114;6.900;2023-05-07T10:27:34;101327.53;;;26.83
37452;BMP280;23314;51.114;6.900;2023-05-07T10:32:38;101330.47;;;27.16
37452;BMP280;23314;51.114;6.900;2023-05-07T10:35:08;101332.88;;;27.50
37452;BMP280;23314;51.114;6.900;2023-05-07T10:37:35;101330.75;;;27.81
37452;BMP280;23314;51.114;6.900;2023-05-07T10:40:01;101331.66;;;28.08
37452;BMP280;23314;51.114;6.900;2023-05-07T10:42:26;101326.00;;;28.38
37452;BMP280;23314;51.114;6.900;2023-05-07T10:44:51;101332.28;;;28.65
37452;BMP280;23314;51.114;6.900;2023-05-07T10:47:17;101321.41;;;28.60
37452;BMP280;23314;51.114;6.900;2023-05-07T10:50:19;101327.81;;;28.49
37452;BMP280;23314;51.114;6.900;2023-05-07T10:52:32;101327.94;;;28.57
37452;BMP280;23314;51.114;6.900;2023-05-07T10:57:45;101310.16;;;28.44
37452;BMP280;23314;51.114;6.900;2023-05-07T11:05:29;101317.56;;;27.98
37452;BMP280;23314;51.114;6.900;2023-05-07T11:08:04;101317.41;;;28.09
37452;BMP280;23314;51.114;6.900;2023-05-07T11:10:56;101308.31;;;28.33
37452;BMP280;23314;51.114;6.900;2023-05-07T11:16:22;101309.84;;;28.94
37452;BMP280;23314;51.114;6.900;2023-05-07T11:18:55;101312.50;;;29.13
37452;BMP280;23314;51.114;6.900;2023-05-07T11:23:58;101307.44;;;29.78
37452;BMP280;23314;51.114;6.900;2023-05-07T11:26:25;101305.59;;;29.94
37452;BMP280;23314;51.114;6.900;2023-05-07T11:28:51;101309.25;;;30.10
37452;BMP280;23314;51.114;6.900;2023-05-07T11:31:21;101302.78;;;30.28
37452;BMP280;23314;51.114;6.900;2023-05-07T11:33:47;101300.00;;;30.28
37452;BMP280;23314;51.114;6.900;2023-05-07T11:36:13;101299.72;;;30.40
37452;BMP280;23314;51.114;6.900;2023-05-07T11:38:38;101301.22;;;30.41
37452;BMP280;23314;51.114;6.900;2023-05-07T11:41:04;101302.09;;;30.35
37452;BMP280;23314;51.114;6.900;2023-05-07T11:43:31;101300.59;;;30.55
37452;BMP280;23314;51.114;6.900;2023-05-07T11:46:05;101299.25;;;30.78
37452;BMP280;23314;51.114;6.900;2023-05-07T11:48:32;101299.06;;;30.76
37452;BMP280;23314;51.114;6.900;2023-05-07T11:51:02;101296.75;;;30.87
37452;BMP280;23314;51.114;6.900;2023-05-07T11:53:35;101302.34;;;31.03
37452;BMP280;23314;51.114;6.900;2023-05-07T11:56:06;101306.91;;;31.00
37452;BMP280;23314;51.114;6.900;2023-05-07T11:58:32;101306.34;;;30.94
37452;BMP280;23314;51.114;6.900;2023-05-07T12:00:57;101296.44;;;30.99
37452;BMP280;23314;51.114;6.900;2023-05-07T12:03:22;101293.81;;;30.85
37452;BMP280;23314;51.114;6.900;2023-05-07T12:05:48;101305.19;;;30.53
37452;BMP280;23314;51.114;6.900;2023-05-07T12:08:14;101303.09;;;30.46
37452;BMP280;23314;51.114;6.900;2023-05-07T12:10:42;101312.63;;;30.45
37452;BMP280;23314;51.114;6.900;2023-05-07T12:13:27;101310.63;;;30.45
37452;BMP280;23314;51.114;6.900;2023-05-07T12:15:55;101299.47;;;30.30
37452;BMP280;23314;51.114;6.900;2023-05-07T12:18:24;101303.03;;;30.17
37452;BMP280;23314;51.114;6.900;2023-05-07T12:20:50;101310.22;;;30.20
37452;BMP280;23314;51.114;6.900;2023-05-07T12:23:16;101307.75;;;30.09
37452;BMP280;23314;51.114;6.900;2023-05-07T12:25:43;101311.81;;;29.94
37452;BMP280;23314;51.114;6.900;2023-05-07T12:28:15;101312.56;;;29.60
37452;BMP280;23314;51.114;6.900;2023-05-07T12:30:43;101316.72;;;29.14
37452;BMP280;23314;51.114;6.900;2023-05-07T12:33:08;101312.56;;;28.80
37452;BMP280;23314;51.114;6.900;2023-05-07T12:35:40;101308.69;;;28.43
37452;BMP280;23314;51.114;6.900;2023-05-07T12:38:16;101317.41;;;28.28
37452;BMP280;23314;51.114;6.900;2023-05-07T12:40:45;101316.53;;;28.01
37452;BMP280;23314;51.114;6.900;2023-05-07T12:43:25;101314.69;;;27.71
37452;BMP280;23314;51.114;6.900;2023-05-07T12:45:51;101309.19;;;27.52
37452;BMP280;23314;51.114;6.900;2023-05-07T12:48:17;101312.56;;;27.39
37452;BMP280;23314;51.114;6.900;2023-05-07T12:50:44;101314.72;;;27.22
37452;BMP280;23314;51.114;6.900;2023-05-07T12:53:11;101317.41;;;27.03
37452;BMP280;23314;51.114;6.900;2023-05-07T12:55:44;101312.53;;;26.90
37452;BMP280;23314;51.114;6.900;2023-05-07T12:58:17;101316.34;;;26.81
37452;BMP280;23314;51.114;6.900;2023-05-07T13:00:43;101316.41;;;26.70
37452;BMP280;23314;51.114;6.900;2023-05-07T13:03:09;101322.97;;;26.61
37452;BMP280;23314;51.114;6.900;2023-05-07T13:05:35;101320.78;;;26.54
37452;BMP280;23314;51.114;6.900;2023-05-07T13:08:00;101325.28;;;26.52
37452;BMP280;23314;51.114;6.900;2023-05-07T13:10:26;101318.81;;;26.49
37452;BMP280;23314;51.114;6.900;2023-05-07T13:12:52;101321.56;;;26.49
37452;BMP280;23314;51.114;6.900;2023-05-07T13:15:17;101322.25;;;26.55
37452;BMP280;23314;51.114;6.900;2023-05-07T13:17:43;101323.28;;;26.52
37452;BMP280;23314;51.114;6.900;2023-05-07T13:20:09;101325.03;;;26.49
37452;BMP280;23314;51.114;6.900;2023-05-07T13:22:35;101326.47;;;26.56
37452;BMP280;23314;51.114;6.900;2023-05-07T13:25:01;101332.75;;;26.51
37452;BMP280;23314;51.114;6.900;2023-05-07T13:27:27;101332.75;;;26.51
37452;BMP280;23314;51.114;6.900;2023-05-07T13:29:52;101339.72;;;26.46
37452;BMP280;23314;51.114;6.900;2023-05-07T13:32:17;101336.59;;;26.31
37452;BMP280;23314;51.114;6.900;2023-05-07T13:34:43;101341.41;;;26.13
37452;BMP280;23314;51.114;6.900;2023-05-07T13:37:08;101347.69;;;25.97
37452;BMP280;23314;51.114;6.900;2023-05-07T13:39:34;101351.00;;;25.73
37452;BMP280;23314;51.114;6.900;2023-05-07T13:41:59;101356.50;;;25.45
37452;BMP280;23314;51.114;6.900;2023-05-07T13:44:26;101356.50;;;25.22
37452;BMP280;23314;51.114;6.900;2023-05-07T13:46:51;101351.28;;;25.01
37452;BMP280;23314;51.114;6.900;2023-05-07T13:49:16;101350.28;;;24.82
37452;BMP280;23314;51.114;6.900;2023-05-07T13:51:42;101354.19;;;24.64
37452;BMP280;23314;51.114;6.900;2023-05-07T13:54:07;101347.22;;;24.46
37452;BMP280;23314;51.114;6.900;2023-05-07T13:56:33;101343.75;;;24.34
37452;BMP280;23314;51.114;6.900;2023-05-07T13:58:58;101347.38;;;24.20
37452;BMP280;23314;51.114;6.900;2023-05-07T14:01:23;101338.66;;;24.10
37452;BMP280;23314;51.114;6.900;2023-05-07T14:03:49;101341.09;;;23.96
37452;BMP280;23314;51.114;6.900;2023-05-07T14:06:14;101343.44;;;23.77
37452;BMP280;23314;51.114;6.900;2023-05-07T14:08:39;101350.66;;;22.90
37452;BMP280;23314;51.114;6.900;2023-05-07T14:11:05;101343.53;;;21.75
37452;BMP280;23314;51.114;6.900;2023-05-07T14:13:31;101367.13;;;20.85
37452;BMP280;23314;51.114;6.900;2023-05-07T14:15:57;101366.31;;;20.12
37452;BMP280;23314;51.114;6.900;2023-05-07T14:18:22;101372.31;;;19.64
37452;BMP280;23314;51.114;6.900;2023-05-07T14:20:48;101384.66;;;19.28
37452;BMP280;23314;51.114;6.900;2023-05-07T14:23:14;101401.44;;;18.86
37452;BMP280;23314;51.114;6.900;2023-05-07T14:25:40;101406.75;;;18.27
37452;BMP280;23314;51.114;6.900;2023-05-07T14:28:06;101435.22;;;17.96
37452;BMP280;23314;51.114;6.900;2023-05-07T14:30:32;101404.72;;;17.86
37452;BMP280;23314;51.114;6.900;2023-05-07T14:32:57;101423.63;;;17.51
37452;BMP280;23314;51.114;6.900;2023-05-07T14:35:22;101407.34;;;17.42
37452;BMP280;23314;51.114;6.900;2023-05-07T14:37:48;101403.03;;;17.45
37452;BMP280;23314;51.114;6.900;2023-05-07T14:40:13;101398.34;;;17.58
37452;BMP280;23314;51.114;6.900;2023-05-07T14:42:39;101402.81;;;17.52
37452;BMP280;23314;51.114;6.900;2023-05-07T14:45:05;101409.78;;;17.49
37452;BMP280;23314;51.114;6.900;2023-05-07T14:47:31;101415.09;;;17.53
37452;BMP280;23314;51.114;6.900;2023-05-07T14:49:56;101416.13;;;17.68
37452;BMP280;23314;51.114;6.900;2023-05-07T14:52:22;101412.81;;;17.86
37452;BMP280;23314;51.114;6.900;2023-05-07T14:54:48;101421.75;;;18.05
37452;BMP280;23314;51.114;6.900;2023-05-07T14:57:13;101423.97;;;18.20
37452;BMP280;23314;51.114;6.900;2023-05-07T14:59:41;101427.66;;;18.35
37452;BMP280;23314;51.114;6.900;2023-05-07T15:02:06;101425.00;;;18.45
37452;BMP280;23314;51.114;6.900;2023-05-07T15:04:33;101420.38;;;18.54
37452;BMP280;23314;51.114;6.900;2023-05-07T15:06:59;101424.50;;;18.68
37452;BMP280;23314;51.114;6.900;2023-05-07T15:09:25;101415.81;;;18.73
37452;BMP280;23314;51.114;6.900;2023-05-07T15:11:50;101411.47;;;18.76
37452;BMP280;23314;51.114;6.900;2023-05-07T15:14:16;101407.72;;;18.83
37452;BMP280;23314;51.114;6.900;2023-05-07T15:16:41;101411.78;;;18.87
37452;BMP280;23314;51.114;6.900;2023-05-07T15:19:06;101406.41;;;18.97
37452;BMP280;23314;51.114;6.900;2023-05-07T15:21:32;101417.53;;;18.99
37452;BMP280;23314;51.114;6.900;2023-05-07T15:24:00;101416.00;;;18.98
37452;BMP280;23314;51.114;6.900;2023-05-07T15:26:26;101428.34;;;18.99
37452;BMP280;23314;51.114;6.900;2023-05-07T15:28:51;101430.16;;;19.02
37452;BMP280;23314;51.114;6.900;2023-05-07T15:31:17;101433.59;;;19.02
37452;BMP280;23314;51.114;6.900;2023-05-07T15:33:42;101431.94;;;19.05
37452;BMP280;23314;51.114;6.900;2023-05-07T15:36:08;101436.75;;;19.10
37452;BMP280;23314;51.114;6.900;2023-05-07T15:38:34;101433.47;;;19.15
37452;BMP280;23314;51.114;6.900;2023-05-07T15:40:59;101440.25;;;19.20
37452;BMP280;23314;51.114;6.900;2023-05-07T15:43:25;101432.13;;;19.29
37452;BMP280;23314;51.114;6.900;2023-05-07T15:45:50;101429.59;;;19.35
37452;BMP280;23314;51.114;6.900;2023-05-07T15:48:16;101425.09;;;19.41
37452;BMP280;23314;51.114;6.900;2023-05-07T15:50:41;101432.47;;;19.50
37452;BMP280;23314;51.114;6.900;2023-05-07T15:53:06;101424.19;;;19.63
37452;BMP280;23314;51.114;6.900;2023-05-07T15:55:33;101420.88;;;19.77
37452;BMP280;23314;51.114;6.900;2023-05-07T15:57:58;101420.53;;;19.93
37452;BMP280;23314;51.114;6.900;2023-05-07T16:00:27;101416.84;;;20.15
37452;BMP280;23314;51.114;6.900;2023-05-07T16:02:53;101421.66;;;20.29
37452;BMP280;23314;51.114;6.900;2023-05-07T16:05:19;101425.06;;;20.39
37452;BMP280;23314;51.114;6.900;2023-05-07T16:07:44;101424.88;;;20.52
37452;BMP280;23314;51.114;6.900;2023-05-07T16:10:10;101424.91;;;20.67
37452;BMP280;23314;51.114;6.900;2023-05-07T16:12:35;101419.75;;;20.78
37452;BMP280;23314;51.114;6.900;2023-05-07T16:15:01;101424.38;;;20.87
37452;BMP280;23314;51.114;6.900;2023-05-07T16:17:27;101427.66;;;20.91
37452;BMP280;23314;51.114;6.900;2023-05-07T16:19:52;101427.16;;;20.93
37452;BMP280;23314;51.114;6.900;2023-05-07T16:22:17;101433.25;;;21.12
37452;BMP280;23314;51.114;6.900;2023-05-07T16:24:43;101432.63;;;21.32
37452;BMP280;23314;51.114;6.900;2023-05-07T16:27:09;101436.59;;;21.46
37452;BMP280;23314;51.114;6.900;2023-05-07T16:29:35;101439.59;;;21.63
37452;BMP280;23314;51.114;6.900;2023-05-07T16:32:00;101441.94;;;21.70
37452;BMP280;23314;51.114;6.900;2023-05-07T16:34:25;101441.66;;;21.68
37452;BMP280;23314;51.114;6.900;2023-05-07T16:36:51;101433.22;;;21.66
37452;BMP280;23314;51.114;6.900;2023-05-07T16:39:16;101440.38;;;21.63
37452;BMP280;23314;51.114;6.900;2023-05-07T16:41:44;101439.88;;;21.65
37452;BMP280;23314;51.114;6.900;2023-05-07T16:44:13;101437.91;;;21.65
37452;BMP280;23314;51.114;6.900;2023-05-07T16:46:38;101434.84;;;21.58
37452;BMP280;23314;51.114;6.900;2023-05-07T16:49:03;101440.13;;;21.52
37452;BMP280;23314;51.114;6.900;2023-05-07T16:51:29;101436.97;;;21.54
37452;BMP280;23314;51.114;6.900;2023-05-07T16:53:54;101448.66;;;21.45
37452;BMP280;23314;51.114;6.900;2023-05-07T16:56:19;101445.75;;;21.33
37452;BMP280;23314;51.114;6.900;2023-05-07T16:58:46;101452.25;;;21.27
37452;BMP280;23314;51.114;6.900;2023-05-07T17:01:11;101455.34;;;21.20
37452;BMP280;23314;51.114;6.900;2023-05-07T17:03:38;101453.44;;;21.11
37452;BMP280;23314;51.114;6.900;2023-05-07T17:06:04;101456.50;;;21.04
37452;BMP280;23314;51.114;6.900;2023-05-07T17:08:33;101455.94;;;20.99
37452;BMP280;23314;51.114;6.900;2023-05-07T17:10:58;101456.56;;;20.94
37452;BMP280;23314;51.114;6.900;2023-05-07T17:13:24;101453.75;;;20.89
37452;BMP280;23314;51.114;6.900;2023-05-07T17:15:49;101468.22;;;20.86
37452;BMP280;23314;51.114;6.900;2023-05-07T17:18:15;101467.63;;;20.81
37452;BMP280;23314;51.114;6.900;2023-05-07T17:20:40;101466.47;;;20.73
37452;BMP280;23314;51.114;6.900;2023-05-07T17:23:05;101471.19;;;20.63
37452;BMP280;23314;51.114;6.900;2023-05-07T17:25:33;101474.69;;;20.55
37452;BMP280;23314;51.114;6.900;2023-05-07T17:28:00;101480.00;;;20.49
37452;BMP280;23314;51.114;6.900;2023-05-07T17:30:26;101483.50;;;20.40
37452;BMP280;23314;51.114;6.900;2023-05-07T17:32:51;101481.81;;;20.34
37452;BMP280;23314;51.114;6.900;2023-05-07T17:35:16;101485.47;;;20.30
37452;BMP280;23314;51.114;6.900;2023-05-07T17:37:42;101486.22;;;20.31
37452;BMP280;23314;51.114;6.900;2023-05-07T17:40:11;101486.97;;;20.32
37452;BMP280;23314;51.114;6.900;2023-05-07T17:42:36;101493.75;;;20.36
37452;BMP280;23314;51.114;6.900;2023-05-07T17:45:01;101493.25;;;20.38
37452;BMP280;23314;51.114;6.900;2023-05-07T17:47:27;101502.47;;;20.40
37452;BMP280;23314;51.114;6.900;2023-05-07T17:49:52;101510.84;;;20.42
37452;BMP280;23314;51.114;6.900;2023-05-07T17:52:18;101512.81;;;20.42
37452;BMP280;23314;51.114;6.900;2023-05-07T17:54:43;101508.59;;;20.41
37452;BMP280;23314;51.114;6.900;2023-05-07T17:57:09;101503.94;;;20.41
37452;BMP280;23314;51.114;6.900;2023-05-07T17:59:34;101508.31;;;20.39
37452;BMP280;23314;51.114;6.900;2023-05-07T18:01:59;101504.88;;;20.38
37452;BMP280;23314;51.114;6.900;2023-05-07T18:04:25;101511.94;;;20.36
37452;BMP280;23314;51.114;6.900;2023-05-07T18:06:52;101516.31;;;20.33
37452;BMP280;23314;51.114;6.900;2023-05-07T18:09:17;101513.78;;;20.29
37452;BMP280;23314;51.114;6.900;2023-05-07T18:11:42;101516.81;;;20.22
37452;BMP280;23314;51.114;6.900;2023-05-07T18:14:08;101513.94;;;20.17
37452;BMP280;23314;51.114;6.900;2023-05-07T18:16:33;101518.47;;;20.10
37452;BMP280;23314;51.114;6.900;2023-05-07T18:18:58;101518.78;;;20.03
37452;BMP280;23314;51.114;6.900;2023-05-07T18:21:24;101520.88;;;19.99
37452;BMP280;23314;51.114;6.900;2023-05-07T18:23:49;101522.25;;;19.94
37452;BMP280;23314;51.114;6.900;2023-05-07T18:26:16;101527.97;;;19.87
37452;BMP280;23314;51.114;6.900;2023-05-07T18:28:41;101530.34;;;19.85
37452;BMP280;23314;51.114;6.900;2023-05-07T18:31:06;101532.03;;;19.83
37452;BMP280;23314;51.114;6.900;2023-05-07T18:33:32;101540.59;;;19.81
37452;BMP280;23314;51.114;6.900;2023-05-07T18:35:57;101544.97;;;19.78
37452;BMP280;23314;51.114;6.900;2023-05-07T18:38:23;101546.63;;;19.76
37452;BMP280;23314;51.114;6.900;2023-05-07T18:40:48;101546.63;;;19.76
37452;BMP280;23314;51.114;6.900;2023-05-07T18:43:13;101552.94;;;19.73
37452;BMP280;23314;51.114;6.900;2023-05-07T18:45:39;101551.09;;;19.70
37452;BMP280;23314;51.114;6.900;2023-05-07T18:48:05;101559.69;;;19.68
37452;BMP280;23314;51.114;6.900;2023-05-07T18:50:32;101556.22;;;19.68
37452;BMP280;23314;51.114;6.900;2023-05-07T18:52:57;101565.69;;;19.63
37452;BMP280;23314;51.114;6.900;2023-05-07T18:55:23;101560.41;;;19.59
37452;BMP280;23314;51.114;6.900;2023-05-07T18:57:48;101562.06;;;19.57
37452;BMP280;23314;51.114;6.900;2023-05-07T19:00:14;101562.06;;;19.57
37452;BMP280;23314;51.114;6.900;2023-05-07T19:02:40;101567.47;;;19.57
37452;BMP280;23314;51.114;6.900;2023-05-07T19:05:06;101567.03;;;19.58
37452;BMP280;23314;51.114;6.900;2023-05-07T19:07:31;101564.78;;;19.57
37452;BMP280;23314;51.114;6.900;2023-05-07T19:09:57;101568.53;;;19.50
37452;BMP280;23314;51.114;6.900;2023-05-07T19:12:22;101573.78;;;19.45
37452;BMP280;23314;51.114;6.900;2023-05-07T19:14:48;101579.31;;;19.41
37452;BMP280;23314;51.114;6.900;2023-05-07T19:17:13;101584.56;;;19.35
37452;BMP280;23314;51.114;6.900;2023-05-07T19:19:40;101588.94;;;19.33
37452;BMP280;23314;51.114;6.900;2023-05-07T19:22:05;101585.91;;;19.31
37452;BMP280;23314;51.114;6.900;2023-05-07T19:24:31;101582.59;;;19.26
37452;BMP280;23314;51.114;6.900;2023-05-07T19:26:57;101588.13;;;19.23
37452;BMP280;23314;51.114;6.900;2023-05-07T19:29:22;101586.78;;;19.18
37452;BMP280;23314;51.114;6.900;2023-05-07T19:31:48;101596.53;;;19.16
37452;BMP280;23314;51.114;6.900;2023-05-07T19:34:13;101604.75;;;19.12
37452;BMP280;23314;51.114;6.900;2023-05-07T19:36:39;101607.63;;;19.08
37452;BMP280;23314;51.114;6.900;2023-05-07T19:39:04;101611.50;;;19.07
37452;BMP280;23314;51.114;6.900;2023-05-07T19:41:30;101615.41;;;19.06
37452;BMP280;23314;51.114;6.900;2023-05-07T19:43:55;101611.19;;;19.05
37452;BMP280;23314;51.114;6.900;2023-05-07T19:46:21;101625.94;;;19.04
37452;BMP280;23314;51.114;6.900;2023-05-07T19:48:46;101624.41;;;19.03
37452;BMP280;23314;51.114;6.900;2023-05-07T19:51:13;101618.25;;;19.03
37452;BMP280;23314;51.114;6.900;2023-05-07T19:53:38;101623.78;;;18.99
37452;BMP280;23314;51.114;6.900;2023-05-07T19:56:06;101623.47;;;18.97
37452;BMP280;23314;51.114;6.900;2023-05-07T19:58:33;101635.94;;;18.95
37452;BMP280;23314;51.114;6.900;2023-05-07T20:10:01;101643.06;;;18.44
37452;BMP280;23314;51.114;6.900;2023-05-07T20:12:26;101645.34;;;18.46
37452;BMP280;23314;51.114;6.900;2023-05-07T20:14:51;101640.59;;;18.50
37452;BMP280;23314;51.114;6.900;2023-05-07T20:17:17;101641.19;;;18.54
37452;BMP280;23314;51.114;6.900;2023-05-07T20:19:43;101644.53;;;18.58
37452;BMP280;23314;51.114;6.900;2023-05-07T20:22:09;101649.09;;;18.61
37452;BMP280;23314;51.114;6.900;2023-05-07T20:24:37;101652.41;;;18.65
37452;BMP280;23314;51.114;6.900;2023-05-07T20:27:05;101658.88;;;18.68
37452;BMP280;23314;51.114;6.900;2023-05-07T20:29:32;101656.94;;;18.68
37452;BMP280;23314;51.114;6.900;2023-05-07T20:31:57;101658.44;;;18.69
37452;BMP280;23314;51.114;6.900;2023-05-07T20:34:22;101665.22;;;18.74
37452;BMP280;23314;51.114;6.900;2023-05-07T20:36:48;101661.34;;;18.75
37452;BMP280;23314;51.114;6.900;2023-05-07T20:39:13;101671.72;;;18.77
37452;BMP280;23314;51.114;6.900;2023-05-07T20:41:40;101670.97;;;18.76
37452;BMP280;23314;51.114;6.900;2023-05-07T20:44:06;101674.41;;;18.77
37452;BMP280;23314;51.114;6.900;2023-05-07T20:46:31;101672.47;;;18.77
37452;BMP280;23314;51.114;6.900;2023-05-07T20:48:57;101667.94;;;18.74
37452;BMP280;23314;51.114;6.900;2023-05-07T20:51:22;101674.53;;;18.73
37452;BMP280;23314;51.114;6.900;2023-05-07T20:53:48;101672.72;;;18.70
37452;BMP280;23314;51.114;6.900;2023-05-07T20:56:13;101679.75;;;18.67
37452;BMP280;23314;51.114;6.900;2023-05-07T20:58:39;101679.00;;;18.67
37452;BMP280;23314;51.114;6.900;2023-05-07T21:01:04;101677.94;;;18.64
37452;BMP280;23314;51.114;6.900;2023-05-07T21:03:30;101684.66;;;18.60
37452;BMP280;23314;51.114;6.900;2023-05-07T21:05:56;101677.84;;;18.55
37452;BMP280;23314;51.114;6.900;2023-05-07T21:08:24;101674.50;;;18.51
37452;BMP280;23314;51.114;6.900;2023-05-07T21:10:50;101671.59;;;18.45
37452;BMP280;23314;51.114;6.900;2023-05-07T21:13:16;101669.44;;;18.40
37452;BMP280;23314;51.114;6.900;2023-05-07T21:15:42;101670.38;;;18.37
37452;BMP280;23314;51.114;6.900;2023-05-07T21:18:09;101672.84;;;18.31